createdAt,value
2022-12-23T00:01:45.052Z,99169.41
2022-12-23T00:04:13.873Z,99164.91
2022-12-23T00:06:42.395Z,99159.59
2022-12-23T00:09:11.112Z,99168.28
2022-12-23T00:12:01.794Z,99167.38
2022-12-23T00:14:47.825Z,99171.75
2022-12-23T00:17:22.675Z,99182.56
2022-12-23T00:19:51.932Z,99171.22
2022-12-23T00:22:20.381Z,99180.22
2022-12-23T00:24:49.015Z,99188.63
2022-12-23T00:27:18.776Z,99191.56
2022-12-23T00:29:47.458Z,99191.28
2022-12-23T00:32:16.003Z,99187.56
2022-12-23T00:34:44.784Z,99181.22
2022-12-23T00:37:13.201Z,99191.03
2022-12-23T00:40:06.574Z,99188.47
2022-12-23T00:42:56.892Z,99186.47
2022-12-23T00:45:25.710Z,99190.56
2022-12-23T00:48:11.780Z,99185.97
2022-12-23T00:50:41.258Z,99187.53
2022-12-23T00:53:09.784Z,99190.91
2022-12-23T00:55:38.516Z,99190.94
2022-12-23T00:58:08.366Z,99192.63
2022-12-23T01:00:54.573Z,99190.94
2022-12-23T01:03:40.626Z,99188.34
2022-12-23T01:06:09.337Z,99184.16
2022-12-23T01:08:37.790Z,99178.00
2022-12-23T01:11:08.288Z,99177.19
2022-12-23T01:13:39.469Z,99171.75
2022-12-23T01:16:16.949Z,99175.25
2022-12-23T01:18:46.521Z,99176.91
2022-12-23T01:21:15.270Z,99161.94
2022-12-23T01:23:43.643Z,99169.16
2022-12-23T01:26:13.104Z,99170.03
2022-12-23T01:28:42.864Z,99172.59
2022-12-23T01:31:12.086Z,99165.53
2022-12-23T01:33:40.555Z,99169.94
2022-12-23T01:36:10.265Z,99171.66
2022-12-23T01:38:38.735Z,99169.81
2022-12-23T01:41:07.838Z,99163.63
2022-12-23T01:43:47.854Z,99169.31
2022-12-23T01:46:16.798Z,99155.66
2022-12-23T01:48:49.094Z,99163.59
2022-12-23T01:51:24.907Z,99154.53
2022-12-23T01:53:58.975Z,99158.09
2022-12-23T01:56:30.955Z,99152.84
2022-12-23T01:59:03.549Z,99146.75
2022-12-23T02:01:50.157Z,99148.75
2022-12-23T02:04:22.149Z,99152.25
2022-12-23T02:07:10.119Z,99153.09
2022-12-23T02:09:40.612Z,99146.09
2022-12-23T02:12:42.967Z,99145.69
2022-12-23T02:15:57.016Z,99136.97
2022-12-23T02:18:43.268Z,99141.91
2022-12-23T02:21:33.501Z,99139.78
2022-12-23T02:24:28.175Z,99138.44
2022-12-23T02:27:16.405Z,99138.09
2022-12-23T02:30:09.291Z,99129.16
2022-12-23T02:32:58.687Z,99132.63
2022-12-23T02:35:33.124Z,99134.59
2022-12-23T02:38:08.599Z,99138.06
2022-12-23T02:40:44.455Z,99130.09
2022-12-23T02:43:20.508Z,99129.88
2022-12-23T02:45:55.287Z,99126.31
2022-12-23T02:48:33.099Z,99118.47
2022-12-23T02:51:03.402Z,99123.50
2022-12-23T02:53:36.864Z,99134.38
2022-12-23T02:56:08.205Z,99128.00
2022-12-23T02:58:42.854Z,99120.72
2022-12-23T03:01:14.455Z,99117.00
2022-12-23T03:03:46.899Z,99121.91
2022-12-23T03:06:22.251Z,99122.59
2022-12-23T03:08:53.982Z,99119.91
2022-12-23T03:11:23.484Z,99118.84
2022-12-23T03:14:14.071Z,99119.13
2022-12-23T03:16:53.785Z,99119.91
2022-12-23T03:19:31.615Z,99109.59
2022-12-23T03:22:09.481Z,99105.56
2022-12-23T03:24:50.711Z,99105.25
2022-12-23T03:27:27.928Z,99108.97
2022-12-23T03:30:01.089Z,99101.50
2022-12-23T03:32:33.725Z,99102.16
2022-12-23T03:35:08.100Z,99106.72
2022-12-23T03:37:42.160Z,99099.88
2022-12-23T03:40:16.381Z,99093.56
2022-12-23T03:42:50.301Z,99094.59
2022-12-23T03:45:41.650Z,99099.84
2022-12-23T03:48:18.712Z,99091.75
2022-12-23T03:50:53.622Z,99090.78
2022-12-23T03:53:26.660Z,99097.88
2022-12-23T03:56:00.740Z,99097.97
2022-12-23T03:58:36.504Z,99097.81
2022-12-23T04:01:14.291Z,99096.84
2022-12-23T04:03:49.423Z,99091.84
2022-12-23T04:06:22.777Z,99095.78
2022-12-23T04:08:53.263Z,99097.41
2022-12-23T04:11:21.778Z,99097.16
2022-12-23T04:13:50.669Z,99104.28
2022-12-23T04:16:19.415Z,99098.53
2022-12-23T04:18:48.239Z,99104.94
2022-12-23T04:21:17.108Z,99108.38
2022-12-23T04:23:47.105Z,99104.16
2022-12-23T04:26:15.469Z,99099.88
2022-12-23T04:28:44.605Z,99104.91
2022-12-23T04:31:13.003Z,99097.56
2022-12-23T04:33:41.750Z,99096.78
2022-12-23T04:36:10.217Z,99091.56
2022-12-23T04:38:38.900Z,99099.81
2022-12-23T04:41:08.784Z,99090.91
2022-12-23T04:43:37.574Z,99092.53
2022-12-23T04:46:06.197Z,99098.38
2022-12-23T04:48:35.074Z,99098.22
2022-12-23T04:51:03.789Z,99093.78
2022-12-23T04:53:32.524Z,99098.88
2022-12-23T04:56:00.968Z,99100.50
2022-12-23T04:58:31.198Z,99096.94
2022-12-23T05:01:03.809Z,99099.56
2022-12-23T05:03:32.652Z,99106.59
2022-12-23T05:06:01.441Z,99094.56
2022-12-23T05:08:30.365Z,99096.25
2022-12-23T05:10:58.892Z,99096.31
2022-12-23T05:13:27.733Z,99097.28
2022-12-23T05:15:57.830Z,99093.91
2022-12-23T05:18:26.643Z,99093.34
2022-12-23T05:20:55.546Z,99097.88
2022-12-23T05:23:24.302Z,99097.88
2022-12-23T05:25:54.456Z,99105.81
2022-12-23T05:28:24.707Z,99103.97
2022-12-23T05:31:00.707Z,99102.28
2022-12-23T05:33:30.376Z,99098.94
2022-12-23T05:35:59.252Z,99095.41
2022-12-23T05:38:28.785Z,99105.91
2022-12-23T05:40:57.383Z,99097.59
2022-12-23T05:43:26.299Z,99099.84
2022-12-23T05:45:54.825Z,99098.00
2022-12-23T05:48:25.172Z,99109.19
2022-12-23T05:50:54.447Z,99106.44
2022-12-23T05:53:24.631Z,99115.09
2022-12-23T05:55:53.136Z,99106.34
2022-12-23T05:58:21.761Z,99108.88
2022-12-23T06:00:50.237Z,99117.50
2022-12-23T06:03:19.115Z,99116.53
2022-12-23T06:05:52.633Z,99122.44
2022-12-23T06:08:21.833Z,99118.31
2022-12-23T06:10:50.307Z,99120.97
2022-12-23T06:13:19.102Z,99120.84
2022-12-23T06:15:47.917Z,99119.97
2022-12-23T06:18:16.580Z,99126.09
2022-12-23T06:20:47.203Z,99126.97
2022-12-23T06:23:17.357Z,99126.91
2022-12-23T06:25:45.800Z,99133.00
2022-12-23T06:28:14.586Z,99125.94
2022-12-23T06:30:43.057Z,99134.59
2022-12-23T06:33:11.713Z,99130.13
2022-12-23T06:35:40.168Z,99133.59
2022-12-23T06:38:12.071Z,99144.84
2022-12-23T06:40:42.416Z,99141.38
2022-12-23T06:43:13.479Z,99143.88
2022-12-23T06:45:42.257Z,99149.91
2022-12-23T06:48:12.106Z,99153.06
2022-12-23T06:50:40.593Z,99158.16
2022-12-23T06:53:09.861Z,99157.13
2022-12-23T06:55:38.283Z,99152.50
2022-12-23T06:58:08.446Z,99154.81
2022-12-23T07:00:37.059Z,99152.03
2022-12-23T07:03:05.898Z,99162.22
2022-12-23T07:05:37.635Z,99155.06
2022-12-23T07:08:07.481Z,99161.75
2022-12-23T07:10:36.184Z,99153.84
2022-12-23T07:13:05.032Z,99159.25
2022-12-23T07:15:34.869Z,99153.94
2022-12-23T07:18:03.691Z,99156.50
2022-12-23T07:20:32.205Z,99155.75
2022-12-23T07:23:01.038Z,99158.44
2022-12-23T07:25:29.549Z,99155.81
2022-12-23T07:27:58.310Z,99155.91
2022-12-23T07:30:26.956Z,99152.41
2022-12-23T07:32:57.098Z,99161.94
2022-12-23T07:35:25.671Z,99165.34
2022-12-23T07:37:55.514Z,99160.00
2022-12-23T07:40:24.499Z,99156.22
2022-12-23T07:42:56.992Z,99176.97
2022-12-23T07:45:25.886Z,99165.38
2022-12-23T07:47:56.927Z,99174.72
2022-12-23T07:50:25.869Z,99173.72
2022-12-23T07:52:55.221Z,99163.78
2022-12-23T07:55:24.261Z,99167.88
2022-12-23T07:57:54.114Z,99168.44
2022-12-23T08:00:23.144Z,99178.69
2022-12-23T08:02:52.032Z,99177.41
2022-12-23T08:05:22.468Z,99177.03
2022-12-23T08:07:52.870Z,99177.59
2022-12-23T08:10:21.354Z,99180.09
2022-12-23T08:12:49.990Z,99179.38
2022-12-23T08:15:18.746Z,99182.38
2022-12-23T08:17:47.732Z,99184.66
2022-12-23T08:20:16.255Z,99193.94
2022-12-23T08:22:46.455Z,99182.38
2022-12-23T08:25:14.940Z,99192.94
2022-12-23T08:27:43.723Z,99197.59
2022-12-23T08:30:13.073Z,99195.38
2022-12-23T08:32:41.993Z,99191.31
2022-12-23T08:35:10.719Z,99193.47
2022-12-23T08:37:39.509Z,99190.81
2022-12-23T08:40:10.687Z,99195.81
2022-12-23T08:42:39.376Z,99198.09
2022-12-23T08:45:08.733Z,99192.38
2022-12-23T08:47:37.507Z,99195.72
2022-12-23T08:50:06.755Z,99194.66
2022-12-23T08:52:35.598Z,99195.84
2022-12-23T08:55:04.924Z,99187.59
2022-12-23T08:57:35.428Z,99179.34
2022-12-23T09:00:04.895Z,99183.66
2022-12-23T09:02:33.884Z,99180.84
2022-12-23T09:05:02.633Z,99178.38
2022-12-23T09:07:31.953Z,99176.72
2022-12-23T09:10:00.447Z,99171.22
2022-12-23T09:12:29.626Z,99164.25
2022-12-23T09:14:59.492Z,99168.91
2022-12-23T09:17:28.255Z,99170.28
2022-12-23T09:19:56.709Z,99174.56
2022-12-23T09:22:25.900Z,99176.72
2022-12-23T09:24:58.652Z,99173.00
2022-12-23T09:27:32.244Z,99177.88
2022-12-23T09:30:02.005Z,99170.88
2022-12-23T09:32:30.723Z,99172.63
2022-12-23T09:34:59.273Z,99170.50
2022-12-23T09:37:28.059Z,99159.66
2022-12-23T09:39:56.541Z,99168.22
2022-12-23T09:42:48.152Z,99163.94
2022-12-23T09:45:27.327Z,99162.97
2022-12-23T09:47:57.437Z,99163.72
2022-12-23T09:50:29.993Z,99160.50
2022-12-23T09:53:03.645Z,99157.06
2022-12-23T09:55:41.476Z,99155.56
2022-12-23T09:58:23.961Z,99147.38
2022-12-23T10:01:09.852Z,99154.47
2022-12-23T10:03:56.730Z,99149.38
2022-12-23T10:06:29.776Z,99140.28
2022-12-23T10:09:02.189Z,99133.06
2022-12-23T10:11:35.415Z,99131.03
2022-12-23T10:14:15.786Z,99132.19
2022-12-23T10:16:50.719Z,99130.44
2022-12-23T10:19:24.812Z,99129.13
2022-12-23T10:21:55.979Z,99131.31
2022-12-23T10:24:26.698Z,99127.94
2022-12-23T10:26:57.145Z,99125.09
2022-12-23T10:29:27.745Z,99116.31
2022-12-23T10:32:15.192Z,99112.34
2022-12-23T10:34:52.171Z,99112.13
2022-12-23T10:37:31.821Z,99115.06
2022-12-23T10:40:13.005Z,99110.31
2022-12-23T10:42:52.924Z,99116.84
2022-12-23T10:45:39.765Z,99114.38
2022-12-23T10:48:26.055Z,99115.16
2022-12-23T10:51:02.616Z,99117.41
2022-12-23T10:53:38.359Z,99104.25
2022-12-23T10:56:08.560Z,99098.34
2022-12-23T10:58:41.611Z,99098.41
2022-12-23T11:01:18.905Z,99087.28
2022-12-23T11:04:02.974Z,99098.59
2022-12-23T11:06:37.381Z,99094.16
2022-12-23T11:09:17.003Z,99096.88
2022-12-23T11:11:57.459Z,99083.31
2022-12-23T11:14:38.768Z,99087.41
2022-12-23T11:17:20.498Z,99090.00
2022-12-23T11:20:06.736Z,99085.69
2022-12-23T11:22:35.960Z,99090.66
2022-12-23T11:25:27.975Z,99081.91
2022-12-23T11:27:59.896Z,99083.00
2022-12-23T11:30:30.088Z,99083.59
2022-12-23T11:32:59.380Z,99075.81
2022-12-23T11:35:31.555Z,99087.16
2022-12-23T11:38:03.130Z,99076.25
2022-12-23T11:40:35.139Z,99076.50
2022-12-23T11:43:06.138Z,99075.25
2022-12-23T11:45:38.784Z,99081.28
2022-12-23T11:48:27.061Z,99082.59
2022-12-23T11:51:02.726Z,99075.72
2022-12-23T11:53:32.356Z,99076.66
2022-12-23T11:56:04.374Z,99068.78
2022-12-23T11:58:41.027Z,99068.50
2022-12-23T12:01:18.086Z,99063.78
2022-12-23T12:03:52.463Z,99064.50
2022-12-23T12:06:24.310Z,99061.00
2022-12-23T12:08:57.201Z,99053.94
2022-12-23T12:11:29.828Z,99057.16
2022-12-23T12:14:01.482Z,99067.03
2022-12-23T12:16:45.564Z,99064.50
2022-12-23T12:19:20.555Z,99057.94
2022-12-23T12:21:52.463Z,99053.06
2022-12-23T12:24:26.732Z,99064.91
2022-12-23T12:27:01.222Z,99056.38
2022-12-23T12:29:38.506Z,99063.09
2022-12-23T12:32:17.904Z,99062.38
2022-12-23T12:34:54.115Z,99059.38
2022-12-23T12:37:32.850Z,99049.31
2022-12-23T12:40:16.051Z,99054.06
2022-12-23T12:42:50.058Z,99048.81
2022-12-23T12:45:24.598Z,99041.09
2022-12-23T12:48:16.387Z,99045.34
2022-12-23T12:50:56.649Z,99041.25
2022-12-23T12:53:29.455Z,99049.50
2022-12-23T12:56:07.114Z,99043.16
2022-12-23T12:58:35.615Z,99043.22
2022-12-23T13:01:18.670Z,99047.75
2022-12-23T13:04:14.219Z,99048.97
2022-12-23T13:06:54.434Z,99043.03
2022-12-23T13:09:31.868Z,99042.84
2022-12-23T13:12:08.555Z,99049.94
2022-12-23T13:14:51.201Z,99051.53
2022-12-23T13:17:25.774Z,99045.34
2022-12-23T13:20:02.207Z,99049.50
2022-12-23T13:22:34.369Z,99042.09
2022-12-23T13:25:12.913Z,99037.53
2022-12-23T13:27:48.487Z,99034.66
2022-12-23T13:30:20.151Z,99040.19
2022-12-23T13:33:16.885Z,99042.84
2022-12-23T13:36:06.733Z,99042.13
2022-12-23T13:38:52.534Z,99038.28
2022-12-23T13:41:32.484Z,99032.00
2022-12-23T13:44:03.694Z,99036.06
2022-12-23T13:46:45.465Z,99031.06
2022-12-23T13:49:21.128Z,99036.44
2022-12-23T13:51:58.694Z,99035.38
2022-12-23T13:54:39.522Z,99035.91
2022-12-23T13:57:22.880Z,99040.00
2022-12-23T14:00:05.514Z,99053.03
2022-12-23T14:02:50.427Z,99044.78
2022-12-23T14:05:32.315Z,99056.78
2022-12-23T14:08:02.660Z,99066.03
2022-12-23T14:10:32.436Z,99071.69
2022-12-23T14:13:05.637Z,99065.06
2022-12-23T14:15:48.938Z,99070.78
2022-12-23T14:18:38.479Z,99074.22
2022-12-23T14:21:18.535Z,99074.53
2022-12-23T14:24:04.554Z,99075.56
2022-12-23T14:27:04.778Z,99079.00
2022-12-23T14:29:47.684Z,99070.72
2022-12-23T14:32:22.992Z,99075.75
2022-12-23T14:35:24.795Z,99072.25
2022-12-23T14:38:26.028Z,99072.13
2022-12-23T14:41:00.732Z,99069.56
2022-12-23T14:43:51.103Z,99079.81
2022-12-23T14:46:58.832Z,99071.44
2022-12-23T14:49:42.918Z,99075.91
2022-12-23T14:52:50.428Z,99069.78
2022-12-23T14:55:40.998Z,99066.47
2022-12-23T14:58:33.851Z,99071.84
2022-12-23T15:01:05.441Z,99076.44
2022-12-23T15:03:36.407Z,99076.44
2022-12-23T15:06:08.231Z,99072.25
2022-12-23T15:08:40.157Z,99071.53
2022-12-23T15:11:16.528Z,99068.41
2022-12-23T15:13:45.487Z,99075.03
2022-12-23T15:16:18.057Z,99079.72
2022-12-23T15:18:56.943Z,99073.94
2022-12-23T15:21:32.738Z,99079.13
2022-12-23T15:24:01.573Z,99085.59
2022-12-23T15:26:33.385Z,99074.94
2022-12-23T15:29:02.135Z,99083.66
2022-12-23T15:31:42.481Z,99088.94
2022-12-23T15:34:18.807Z,99088.28
2022-12-23T15:36:54.503Z,99084.09
2022-12-23T15:39:32.345Z,99084.84
2022-12-23T15:42:01.489Z,99082.50
2022-12-23T15:44:36.948Z,99083.31
2022-12-23T15:47:24.141Z,99075.25
2022-12-23T15:49:52.711Z,99070.81
2022-12-23T15:52:23.367Z,99064.03
2022-12-23T15:54:59.124Z,99058.78
2022-12-23T15:57:30.435Z,99068.84
2022-12-23T16:00:00.524Z,99071.53
2022-12-23T16:05:27.953Z,99063.91
2022-12-23T16:08:12.333Z,99059.56
2022-12-23T16:10:41.818Z,99060.13
2022-12-23T16:13:18.932Z,99059.19
2022-12-23T16:15:48.422Z,99056.91
2022-12-23T16:18:23.676Z,99067.22
2022-12-23T16:20:54.659Z,99060.38
2022-12-23T16:23:30.236Z,99056.75
2022-12-23T16:26:01.547Z,99053.63
2022-12-23T16:28:37.053Z,99053.00
2022-12-23T16:31:08.431Z,99053.84
2022-12-23T16:33:40.771Z,99055.84
2022-12-23T16:36:17.600Z,99060.19
2022-12-23T16:38:48.683Z,99063.00
2022-12-23T16:41:17.306Z,99058.94
2022-12-23T16:43:52.077Z,99049.84
2022-12-23T16:46:23.824Z,99052.13
2022-12-23T16:48:55.767Z,99048.56
2022-12-23T16:51:25.538Z,99050.00
2022-12-23T16:53:58.201Z,99057.94
2022-12-23T16:56:31.528Z,99052.00
2022-12-23T16:59:00.453Z,99051.75
2022-12-23T17:01:32.124Z,99045.88
2022-12-23T17:04:01.266Z,99050.03
2022-12-23T17:06:29.939Z,99049.28
2022-12-23T17:09:00.124Z,99048.19
2022-12-23T17:11:37.852Z,99050.38
2022-12-23T17:14:13.581Z,99042.88
2022-12-23T17:16:44.567Z,99039.44
2022-12-23T17:19:14.176Z,99036.25
2022-12-23T17:21:44.866Z,99037.78
2022-12-23T17:24:22.402Z,99045.75
2022-12-23T17:26:51.300Z,99051.91
2022-12-23T17:29:20.588Z,99047.81
2022-12-23T17:31:49.932Z,99056.97
2022-12-23T17:34:20.978Z,99053.41
2022-12-23T17:36:51.237Z,99060.28
2022-12-23T17:39:22.765Z,99048.50
2022-12-23T17:41:51.550Z,99052.03
2022-12-23T17:44:20.410Z,99055.03
2022-12-23T17:46:49.402Z,99047.53
2022-12-23T17:49:18.153Z,99048.09
2022-12-23T17:51:46.600Z,99050.41
2022-12-23T17:54:24.530Z,99050.44
2022-12-23T17:56:53.427Z,99047.50
2022-12-23T17:59:22.566Z,99046.53
2022-12-23T18:01:51.315Z,99046.91
2022-12-23T18:04:20.148Z,99045.31
2022-12-23T18:06:48.730Z,99040.69
2022-12-23T18:09:18.867Z,99037.78
2022-12-23T18:11:49.225Z,99039.84
2022-12-23T18:14:23.281Z,99041.16
2022-12-23T18:16:51.790Z,99041.16
2022-12-23T18:19:22.409Z,99046.47
2022-12-23T18:21:52.478Z,99039.53
2022-12-23T18:24:21.640Z,99045.81
2022-12-23T18:26:51.433Z,99031.75
2022-12-23T18:29:20.186Z,99031.78
2022-12-23T18:31:51.949Z,99043.03
2022-12-23T18:34:22.264Z,99044.97
2022-12-23T18:36:52.088Z,99049.81
2022-12-23T18:39:21.406Z,99046.88
2022-12-23T18:41:51.504Z,99045.81
2022-12-23T18:44:21.688Z,99046.19
2022-12-23T18:46:50.955Z,99040.81
2022-12-23T18:49:19.836Z,99041.94
2022-12-23T18:51:48.826Z,99039.81
2022-12-23T18:54:18.026Z,99044.31
2022-12-23T18:56:46.857Z,99038.75
2022-12-23T18:59:27.192Z,99034.16
2022-12-23T19:01:58.305Z,99041.47
2022-12-23T19:04:27.448Z,99034.31
2022-12-23T19:06:56.592Z,99039.47
2022-12-23T19:09:25.796Z,99033.53
2022-12-23T19:11:54.986Z,99038.91
2022-12-23T19:14:25.336Z,99029.88
2022-12-23T19:16:53.781Z,99028.78
2022-12-23T19:19:22.966Z,99028.91
2022-12-23T19:21:51.459Z,99029.84
2022-12-23T19:24:20.210Z,99026.28
2022-12-23T19:26:48.739Z,99026.41
2022-12-23T19:29:17.613Z,99026.19
2022-12-23T19:31:47.463Z,99033.56
2022-12-23T19:34:16.229Z,99039.84
2022-12-23T19:36:45.105Z,99030.13
2022-12-23T19:39:16.798Z,99022.00
2022-12-23T19:41:45.832Z,99025.97
2022-12-23T19:44:15.186Z,99024.78
2022-12-23T19:46:43.837Z,99031.22
2022-12-23T19:49:19.612Z,99026.00
2022-12-23T19:51:49.708Z,99018.88
2022-12-23T19:54:19.905Z,99015.16
2022-12-23T19:56:51.356Z,99019.09
2022-12-23T19:59:20.926Z,99015.88
2022-12-23T20:01:50.059Z,99011.50
2022-12-23T20:04:20.277Z,99003.56
2022-12-23T20:06:48.740Z,99006.16
2022-12-23T20:09:17.513Z,99005.44
2022-12-23T20:11:47.859Z,99008.88
2022-12-23T20:14:18.139Z,99013.06
2022-12-23T20:16:48.414Z,99016.81
2022-12-23T20:19:17.586Z,99020.56
2022-12-23T20:21:47.710Z,99025.31
2022-12-23T20:24:17.111Z,99022.63
2022-12-23T20:26:45.752Z,99022.44
2022-12-23T20:29:14.605Z,99012.53
2022-12-23T20:31:43.153Z,99031.47
2022-12-23T20:34:16.000Z,99022.28
2022-12-23T20:36:45.019Z,99026.97
2022-12-23T20:39:15.164Z,99018.81
2022-12-23T20:41:43.599Z,99029.22
2022-12-23T20:47:00.835Z,99026.09
2022-12-23T20:49:29.693Z,99016.78
2022-12-23T20:51:58.251Z,99020.41
2022-12-23T20:54:33.387Z,99027.56
2022-12-23T20:57:03.915Z,99032.16
2022-12-23T20:59:33.221Z,99027.69
2022-12-23T21:02:02.399Z,99025.44
2022-12-23T21:04:31.367Z,99018.44
2022-12-23T21:06:59.857Z,99018.44
2022-12-23T21:09:30.171Z,99010.66
2022-12-23T21:11:58.810Z,99016.38
2022-12-23T21:14:27.557Z,99014.28
2022-12-23T21:16:55.978Z,99013.09
2022-12-23T21:19:26.601Z,99021.31
2022-12-23T21:21:55.066Z,99028.63
2022-12-23T21:24:25.711Z,99027.84
2022-12-23T21:26:57.033Z,99031.03
2022-12-23T21:29:26.577Z,99025.19
2022-12-23T21:31:55.294Z,99022.41
2022-12-23T21:34:24.045Z,99025.75
2022-12-23T21:36:52.925Z,99028.16
2022-12-23T21:39:21.487Z,99029.38
2022-12-23T21:41:51.465Z,99034.22
2022-12-23T21:44:21.607Z,99030.31
2022-12-23T21:46:51.374Z,99020.22
2022-12-23T21:49:22.185Z,99017.75
2022-12-23T21:51:51.083Z,99019.91
2022-12-23T21:54:19.557Z,99017.69
2022-12-23T21:56:48.222Z,99013.25
2022-12-23T21:59:16.678Z,99013.66
2022-12-23T22:01:46.835Z,99005.50
2022-12-23T22:04:15.289Z,99010.22
2022-12-23T22:06:45.723Z,99009.66
2022-12-23T22:09:17.622Z,99009.97
2022-12-23T22:11:46.733Z,98999.56
2022-12-23T22:14:17.148Z,98992.97
2022-12-23T22:16:47.399Z,98992.91
2022-12-23T22:19:16.091Z,98988.31
2022-12-23T22:21:45.404Z,98991.00
2022-12-23T22:24:13.969Z,98991.59
2022-12-23T22:26:42.783Z,98983.69
2022-12-23T22:29:12.303Z,98983.56
2022-12-23T22:31:45.278Z,98985.75
2022-12-23T22:34:17.365Z,98984.25
2022-12-23T22:36:46.859Z,98983.41
2022-12-23T22:39:20.639Z,98982.03
2022-12-23T22:41:50.809Z,98981.91
2022-12-23T22:44:19.782Z,98980.53
2022-12-23T22:46:48.778Z,98982.41
2022-12-23T22:49:19.136Z,98987.91
2022-12-23T22:51:47.868Z,98988.19
2022-12-23T22:54:16.644Z,98984.66
2022-12-23T22:56:46.779Z,98993.22
2022-12-23T22:59:23.176Z,98990.31
2022-12-23T23:01:53.557Z,98995.50
2022-12-23T23:04:23.464Z,98986.44
2022-12-23T23:06:52.183Z,98984.97
2022-12-23T23:09:22.825Z,98995.69
2022-12-23T23:11:51.631Z,98999.31
2022-12-23T23:14:20.800Z,98996.94
2022-12-23T23:16:49.738Z,99010.59
2022-12-23T23:19:20.525Z,99010.44
2022-12-23T23:21:50.781Z,99015.66
2022-12-23T23:24:19.204Z,99010.94
2022-12-23T23:26:48.025Z,99011.75
2022-12-23T23:29:16.543Z,99009.78
2022-12-23T23:31:45.432Z,99014.38
2022-12-23T23:34:14.605Z,99009.75
2022-12-23T23:36:43.513Z,99004.06
2022-12-23T23:39:14.223Z,99008.97
2022-12-23T23:41:43.404Z,99001.00
2022-12-23T23:44:12.835Z,98996.47
2022-12-23T23:46:41.766Z,99007.88
2022-12-23T23:49:10.235Z,99013.94
2022-12-23T23:51:39.586Z,99010.44
2022-12-23T23:54:08.041Z,99005.97
2022-12-23T23:56:39.375Z,99005.00
2022-12-23T23:59:08.478Z,99004.19
